sensor_id;sensor_type;location;lat;lon;timestamp;pressure;altitude;pressure_sealevel;temperature;humidity
76378;BME280;65200;49.500;8.654;2023-06-26T00:01:58;100301.56;;;20.01;60.60
76378;BME280;65200;49.500;8.654;2023-06-26T00:04:24;100300.06;;;20.10;60.45
76378;BME280;65200;49.500;8.654;2023-06-26T00:06:50;100293.56;;;20.32;60.22
76378;BME280;65200;49.500;8.654;2023-06-26T00:09:17;100291.56;;;20.28;59.89
76378;BME280;65200;49.500;8.654;2023-06-26T00:11:43;100302.56;;;20.38;58.54
76378;BME280;65200;49.500;8.654;2023-06-26T00:14:11;100296.78;;;20.29;60.82
76378;BME280;65200;49.500;8.654;2023-06-26T00:16:37;100289.31;;;20.20;60.63
76378;BME280;65200;49.500;8.654;2023-06-26T00:19:04;100286.03;;;20.18;61.07
76378;BME280;65200;49.500;8.654;2023-06-26T00:21:30;100295.09;;;20.07;61.55
76378;BME280;65200;49.500;8.654;2023-06-26T00:23:57;100294.75;;;19.98;61.83
76378;BME280;65200;49.500;8.654;2023-06-26T00:26:23;100296.31;;;19.94;61.13
76378;BME280;65200;49.500;8.654;2023-06-26T00:28:50;100298.41;;;20.09;60.21
76378;BME280;65200;49.500;8.654;2023-06-26T00:31:18;100297.28;;;20.05;59.93
76378;BME280;65200;49.500;8.654;2023-06-26T00:33:44;100297.53;;;20.25;59.29
76378;BME280;65200;49.500;8.654;2023-06-26T00:36:10;100295.38;;;20.27;60.06
76378;BME280;65200;49.500;8.654;2023-06-26T00:38:37;100294.88;;;20.30;59.45
76378;BME280;65200;49.500;8.654;2023-06-26T00:41:03;100291.03;;;20.26;62.30
76378;BME280;65200;49.500;8.654;2023-06-26T00:43:30;100295.75;;;20.14;60.90
76378;BME280;65200;49.500;8.654;2023-06-26T00:45:56;100286.97;;;19.85;61.96
76378;BME280;65200;49.500;8.654;2023-06-26T00:48:24;100292.72;;;19.89;61.55
76378;BME280;65200;49.500;8.654;2023-06-26T00:50:50;100297.97;;;19.95;62.28
76378;BME280;65200;49.500;8.654;2023-06-26T00:53:17;100292.38;;;19.64;63.17
76378;BME280;65200;49.500;8.654;2023-06-26T00:55:44;100288.97;;;19.73;63.16
76378;BME280;65200;49.500;8.654;2023-06-26T00:58:11;100289.66;;;19.64;63.78
76378;BME280;65200;49.500;8.654;2023-06-26T01:00:38;100286.50;;;19.72;63.40
76378;BME280;65200;49.500;8.654;2023-06-26T01:03:05;100283.56;;;19.57;63.35
76378;BME280;65200;49.500;8.654;2023-06-26T01:05:33;100291.50;;;19.42;64.90
76378;BME280;65200;49.500;8.654;2023-06-26T01:07:59;100285.66;;;19.50;64.89
76378;BME280;65200;49.500;8.654;2023-06-26T01:10:26;100279.72;;;19.53;63.57
76378;BME280;65200;49.500;8.654;2023-06-26T01:12:54;100277.63;;;19.60;63.25
76378;BME280;65200;49.500;8.654;2023-06-26T01:15:20;100273.97;;;19.33;64.23
76378;BME280;65200;49.500;8.654;2023-06-26T01:17:48;100260.09;;;19.17;65.66
76378;BME280;65200;49.500;8.654;2023-06-26T01:20:15;100271.06;;;19.06;66.50
76378;BME280;65200;49.500;8.654;2023-06-26T01:22:50;100267.03;;;19.08;66.59
76378;BME280;65200;49.500;8.654;2023-06-26T01:25:23;100260.09;;;19.17;66.65
76378;BME280;65200;49.500;8.654;2023-06-26T01:27:57;100259.66;;;19.21;66.39
76378;BME280;65200;49.500;8.654;2023-06-26T01:30:25;100260.69;;;19.03;66.67
76378;BME280;65200;49.500;8.654;2023-06-26T01:32:52;100259.22;;;18.95;67.88
76378;BME280;65200;49.500;8.654;2023-06-26T01:35:18;100259.91;;;19.02;66.73
76378;BME280;65200;49.500;8.654;2023-06-26T01:37:45;100253.03;;;18.83;67.66
76378;BME280;65200;49.500;8.654;2023-06-26T01:40:12;100246.06;;;18.87;67.46
76378;BME280;65200;49.500;8.654;2023-06-26T01:42:39;100251.25;;;19.05;66.72
76378;BME280;65200;49.500;8.654;2023-06-26T01:45:11;100252.78;;;19.01;66.23
76378;BME280;65200;49.500;8.654;2023-06-26T01:47:40;100251.88;;;19.12;66.55
76378;BME280;65200;49.500;8.654;2023-06-26T01:50:14;100248.03;;;19.08;66.90
76378;BME280;65200;49.500;8.654;2023-06-26T01:52:52;100250.66;;;19.20;67.32
76378;BME280;65200;49.500;8.654;2023-06-26T01:55:24;100251.34;;;19.10;66.78
76378;BME280;65200;49.500;8.654;2023-06-26T01:57:56;100242.94;;;19.12;66.86
76378;BME280;65200;49.500;8.654;2023-06-26T02:00:24;100247.03;;;19.14;67.06
76378;BME280;65200;49.500;8.654;2023-06-26T02:02:52;100257.66;;;19.16;67.17
76378;BME280;65200;49.500;8.654;2023-06-26T02:05:18;100250.91;;;19.19;66.23
76378;BME280;65200;49.500;8.654;2023-06-26T02:07:45;100258.97;;;19.13;66.14
76378;BME280;65200;49.500;8.654;2023-06-26T02:10:11;100262.19;;;19.10;67.39
76378;BME280;65200;49.500;8.654;2023-06-26T02:12:38;100265.66;;;18.89;68.17
76378;BME280;65200;49.500;8.654;2023-06-26T02:15:05;100257.75;;;18.71;69.23
76378;BME280;65200;49.500;8.654;2023-06-26T02:17:33;100251.25;;;18.89;67.85
76378;BME280;65200;49.500;8.654;2023-06-26T02:19:59;100256.50;;;18.95;67.25
76378;BME280;65200;49.500;8.654;2023-06-26T02:22:26;100262.50;;;18.64;69.53
76378;BME280;65200;49.500;8.654;2023-06-26T02:24:54;100260.81;;;18.47;70.61
76378;BME280;65200;49.500;8.654;2023-06-26T02:27:20;100257.69;;;18.27;70.03
76378;BME280;65200;49.500;8.654;2023-06-26T02:29:46;100262.22;;;18.21;69.83
76378;BME280;65200;49.500;8.654;2023-06-26T02:32:13;100269.22;;;18.45;69.94
76378;BME280;65200;49.500;8.654;2023-06-26T02:34:42;100263.78;;;18.45;69.41
76378;BME280;65200;49.500;8.654;2023-06-26T02:37:08;100270.06;;;18.62;68.80
76378;BME280;65200;49.500;8.654;2023-06-26T02:39:35;100269.00;;;18.63;68.36
76378;BME280;65200;49.500;8.654;2023-06-26T02:42:02;100268.81;;;18.53;68.40
76378;BME280;65200;49.500;8.654;2023-06-26T02:44:28;100266.09;;;18.53;69.44
76378;BME280;65200;49.500;8.654;2023-06-26T02:46:55;100270.25;;;18.44;69.96
76378;BME280;65200;49.500;8.654;2023-06-26T02:49:21;100263.13;;;18.27;69.68
76378;BME280;65200;49.500;8.654;2023-06-26T02:51:49;100261.47;;;17.98;71.25
76378;BME280;65200;49.500;8.654;2023-06-26T02:54:16;100264.84;;;18.16;69.51
76378;BME280;65200;49.500;8.654;2023-06-26T02:56:42;100267.16;;;18.24;70.46
76378;BME280;65200;49.500;8.654;2023-06-26T02:59:08;100270.53;;;18.31;69.31
76378;BME280;65200;49.500;8.654;2023-06-26T03:01:35;100265.09;;;18.31;69.79
76378;BME280;65200;49.500;8.654;2023-06-26T03:04:01;100260.00;;;18.46;69.61
76378;BME280;65200;49.500;8.654;2023-06-26T03:06:28;100267.06;;;18.19;70.85
76378;BME280;65200;49.500;8.654;2023-06-26T03:08:56;100269.47;;;17.53;71.28
76378;BME280;65200;49.500;8.654;2023-06-26T03:11:22;100267.66;;;17.70;72.86
76378;BME280;65200;49.500;8.654;2023-06-26T03:13:48;100275.53;;;17.83;72.44
76378;BME280;65200;49.500;8.654;2023-06-26T03:16:15;100273.53;;;17.78;72.81
76378;BME280;65200;49.500;8.654;2023-06-26T03:18:41;100281.19;;;17.82;71.67
76378;BME280;65200;49.500;8.654;2023-06-26T03:21:08;100278.25;;;17.83;71.67
76378;BME280;65200;49.500;8.654;2023-06-26T03:23:34;100279.94;;;17.72;72.90
76378;BME280;65200;49.500;8.654;2023-06-26T03:26:02;100284.91;;;17.52;73.75
76378;BME280;65200;49.500;8.654;2023-06-26T03:28:28;100278.84;;;17.39;74.46
76378;BME280;65200;49.500;8.654;2023-06-26T03:30:56;100283.47;;;17.50;75.47
76378;BME280;65200;49.500;8.654;2023-06-26T03:33:22;100287.97;;;17.56;73.79
76378;BME280;65200;49.500;8.654;2023-06-26T03:35:49;100290.66;;;17.67;72.11
76378;BME280;65200;49.500;8.654;2023-06-26T03:38:16;100287.34;;;17.77;71.87
76378;BME280;65200;49.500;8.654;2023-06-26T03:40:42;100292.84;;;17.94;71.07
76378;BME280;65200;49.500;8.654;2023-06-26T03:43:10;100284.72;;;17.94;71.44
76378;BME280;65200;49.500;8.654;2023-06-26T03:45:36;100285.63;;;17.99;71.77
76378;BME280;65200;49.500;8.654;2023-06-26T03:48:03;100281.16;;;18.05;70.67
76378;BME280;65200;49.500;8.654;2023-06-26T03:50:30;100281.22;;;18.21;71.19
76378;BME280;65200;49.500;8.654;2023-06-26T03:52:56;100276.72;;;18.15;69.62
76378;BME280;65200;49.500;8.654;2023-06-26T03:55:24;100275.44;;;18.18;70.89
76378;BME280;65200;49.500;8.654;2023-06-26T03:57:50;100277.19;;;18.24;69.86
76378;BME280;65200;49.500;8.654;2023-06-26T04:00:18;100278.09;;;18.01;71.99
76378;BME280;65200;49.500;8.654;2023-06-26T04:02:45;100279.09;;;18.12;72.57
76378;BME280;65200;49.500;8.654;2023-06-26T04:05:11;100282.59;;;17.84;71.51
76378;BME280;65200;49.500;8.654;2023-06-26T04:07:38;100274.00;;;17.87;73.14
76378;BME280;65200;49.500;8.654;2023-06-26T04:10:05;100278.19;;;18.06;72.62
76378;BME280;65200;49.500;8.654;2023-06-26T04:12:32;100277.69;;;18.09;70.67
76378;BME280;65200;49.500;8.654;2023-06-26T04:14:59;100285.97;;;18.03;71.39
76378;BME280;65200;49.500;8.654;2023-06-26T04:17:27;100280.72;;;18.24;72.46
76378;BME280;65200;49.500;8.654;2023-06-26T04:19:53;100284.88;;;18.15;73.29
76378;BME280;65200;49.500;8.654;2023-06-26T04:22:19;100285.25;;;18.07;74.24
76378;BME280;65200;49.500;8.654;2023-06-26T04:24:46;100293.63;;;18.06;72.66
76378;BME280;65200;49.500;8.654;2023-06-26T04:27:12;100284.81;;;18.27;73.52
76378;BME280;65200;49.500;8.654;2023-06-26T04:29:40;100293.84;;;18.55;70.98
76378;BME280;65200;49.500;8.654;2023-06-26T04:32:06;100289.16;;;18.67;70.96
76378;BME280;65200;49.500;8.654;2023-06-26T04:34:34;100272.81;;;18.51;69.20
76378;BME280;65200;49.500;8.654;2023-06-26T04:37:01;100282.09;;;18.66;71.58
76378;BME280;65200;49.500;8.654;2023-06-26T04:39:28;100277.50;;;18.67;72.36
76378;BME280;65200;49.500;8.654;2023-06-26T04:41:55;100278.59;;;18.54;73.99
76378;BME280;65200;49.500;8.654;2023-06-26T04:44:21;100276.25;;;18.74;74.65
76378;BME280;65200;49.500;8.654;2023-06-26T04:46:48;100283.06;;;18.77;72.21
76378;BME280;65200;49.500;8.654;2023-06-26T04:49:17;100281.19;;;18.77;74.28
76378;BME280;65200;49.500;8.654;2023-06-26T04:51:46;100281.38;;;18.87;73.60
76378;BME280;65200;49.500;8.654;2023-06-26T04:54:13;100294.94;;;18.87;71.81
76378;BME280;65200;49.500;8.654;2023-06-26T04:56:40;100286.06;;;18.92;71.66
76378;BME280;65200;49.500;8.654;2023-06-26T04:59:06;100291.66;;;19.02;72.09
76378;BME280;65200;49.500;8.654;2023-06-26T05:01:38;100292.63;;;19.12;71.16
76378;BME280;65200;49.500;8.654;2023-06-26T05:04:04;100294.47;;;19.24;70.78
76378;BME280;65200;49.500;8.654;2023-06-26T05:06:31;100283.47;;;19.30;70.07
76378;BME280;65200;49.500;8.654;2023-06-26T05:08:58;100276.00;;;19.26;69.56
76378;BME280;65200;49.500;8.654;2023-06-26T05:11:25;100276.34;;;19.46;67.97
76378;BME280;65200;49.500;8.654;2023-06-26T05:13:51;100284.06;;;19.54;68.19
76378;BME280;65200;49.500;8.654;2023-06-26T05:16:18;100278.47;;;19.82;64.79
76378;BME280;65200;49.500;8.654;2023-06-26T05:18:44;100277.53;;;19.93;64.42
76378;BME280;65200;49.500;8.654;2023-06-26T05:21:11;100273.81;;;20.20;63.16
76378;BME280;65200;49.500;8.654;2023-06-26T05:23:38;100272.91;;;20.36;63.02
76378;BME280;65200;49.500;8.654;2023-06-26T05:26:06;100275.94;;;20.40;64.40
76378;BME280;65200;49.500;8.654;2023-06-26T05:28:33;100273.53;;;20.43;64.58
76378;BME280;65200;49.500;8.654;2023-06-26T05:31:01;100269.25;;;20.53;63.56
76378;BME280;65200;49.500;8.654;2023-06-26T05:33:30;100286.06;;;20.71;62.42
76378;BME280;65200;49.500;8.654;2023-06-26T05:35:57;100287.00;;;20.87;62.00
76378;BME280;65200;49.500;8.654;2023-06-26T05:38:25;100283.56;;;20.96;62.18
76378;BME280;65200;49.500;8.654;2023-06-26T05:40:52;100278.78;;;21.08;61.07
76378;BME280;65200;49.500;8.654;2023-06-26T05:43:21;100280.44;;;21.14;60.48
76378;BME280;65200;49.500;8.654;2023-06-26T05:45:48;100281.53;;;21.50;59.41
76378;BME280;65200;49.500;8.654;2023-06-26T05:48:14;100278.28;;;21.53;59.83
76378;BME280;65200;49.500;8.654;2023-06-26T05:50:42;100282.19;;;21.67;59.52
76378;BME280;65200;49.500;8.654;2023-06-26T05:53:09;100286.56;;;21.73;59.50
76378;BME280;65200;49.500;8.654;2023-06-26T05:55:36;100287.22;;;21.85;58.29
76378;BME280;65200;49.500;8.654;2023-06-26T05:58:03;100289.72;;;21.92;57.22
76378;BME280;65200;49.500;8.654;2023-06-26T06:00:32;100286.50;;;22.10;56.87
76378;BME280;65200;49.500;8.654;2023-06-26T06:02:58;100285.19;;;22.22;54.39
76378;BME280;65200;49.500;8.654;2023-06-26T06:05:25;100286.88;;;22.38;54.38
76378;BME280;65200;49.500;8.654;2023-06-26T06:07:51;100284.50;;;22.62;52.46
76378;BME280;65200;49.500;8.654;2023-06-26T06:10:17;100283.16;;;22.69;54.98
76378;BME280;65200;49.500;8.654;2023-06-26T06:12:44;100276.31;;;22.82;52.23
76378;BME280;65200;49.500;8.654;2023-06-26T06:15:10;100286.19;;;22.88;52.61
76378;BME280;65200;49.500;8.654;2023-06-26T06:17:38;100287.28;;;23.07;52.59
76378;BME280;65200;49.500;8.654;2023-06-26T06:20:05;100285.63;;;23.21;50.13
76378;BME280;65200;49.500;8.654;2023-06-26T06:22:31;100300.44;;;23.30;49.90
76378;BME280;65200;49.500;8.654;2023-06-26T06:24:58;100278.28;;;23.27;50.66
76378;BME280;65200;49.500;8.654;2023-06-26T06:27:25;100295.47;;;23.32;50.90
76378;BME280;65200;49.500;8.654;2023-06-26T06:29:52;100291.09;;;23.41;51.15
76378;BME280;65200;49.500;8.654;2023-06-26T06:32:18;100302.03;;;23.46;50.77
76378;BME280;65200;49.500;8.654;2023-06-26T06:34:46;100288.09;;;23.43;49.60
76378;BME280;65200;49.500;8.654;2023-06-26T06:37:13;100293.56;;;23.53;49.41
76378;BME280;65200;49.500;8.654;2023-06-26T06:39:39;100300.38;;;23.55;50.85
76378;BME280;65200;49.500;8.654;2023-06-26T06:42:06;100286.13;;;23.63;50.05
76378;BME280;65200;49.500;8.654;2023-06-26T06:44:33;100288.06;;;23.68;50.28
76378;BME280;65200;49.500;8.654;2023-06-26T06:46:59;100283.34;;;23.78;49.82
76378;BME280;65200;49.500;8.654;2023-06-26T06:49:26;100281.72;;;23.82;50.87
76378;BME280;65200;49.500;8.654;2023-06-26T06:51:53;100275.13;;;23.83;49.79
76378;BME280;65200;49.500;8.654;2023-06-26T06:54:20;100267.47;;;23.85;49.45
76378;BME280;65200;49.500;8.654;2023-06-26T06:56:46;100268.81;;;23.93;49.35
76378;BME280;65200;49.500;8.654;2023-06-26T06:59:13;100276.44;;;24.06;50.87
76378;BME280;65200;49.500;8.654;2023-06-26T07:01:39;100274.81;;;24.05;48.75
76378;BME280;65200;49.500;8.654;2023-06-26T07:04:06;100275.56;;;24.15;49.36
76378;BME280;65200;49.500;8.654;2023-06-26T07:06:32;100267.88;;;24.22;49.79
76378;BME280;65200;49.500;8.654;2023-06-26T07:09:00;100268.72;;;24.23;50.62
76378;BME280;65200;49.500;8.654;2023-06-26T07:11:27;100263.22;;;24.23;48.92
76378;BME280;65200;49.500;8.654;2023-06-26T07:13:55;100260.66;;;24.36;48.37
76378;BME280;65200;49.500;8.654;2023-06-26T07:16:21;100270.22;;;24.49;48.69
76378;BME280;65200;49.500;8.654;2023-06-26T07:18:47;100272.09;;;24.54;49.09
76378;BME280;65200;49.500;8.654;2023-06-26T07:21:15;100271.38;;;24.82;47.98
76378;BME280;65200;49.500;8.654;2023-06-26T07:23:41;100271.91;;;25.46;46.21
76378;BME280;65200;49.500;8.654;2023-06-26T07:26:09;100274.63;;;25.98;45.17
76378;BME280;65200;49.500;8.654;2023-06-26T07:28:35;100266.81;;;27.03;42.99
76378;BME280;65200;49.500;8.654;2023-06-26T07:31:02;100269.63;;;27.17;42.48
76378;BME280;65200;49.500;8.654;2023-06-26T07:33:28;100272.22;;;27.72;41.35
76378;BME280;65200;49.500;8.654;2023-06-26T07:35:55;100261.63;;;27.93;40.95
76378;BME280;65200;49.500;8.654;2023-06-26T07:38:21;100271.31;;;28.17;41.40
76378;BME280;65200;49.500;8.654;2023-06-26T07:40:47;100273.66;;;28.10;40.81
76378;BME280;65200;49.500;8.654;2023-06-26T07:43:16;100277.56;;;28.45;39.94
76378;BME280;65200;49.500;8.654;2023-06-26T07:45:42;100280.84;;;28.47;40.40
76378;BME280;65200;49.500;8.654;2023-06-26T07:48:08;100271.72;;;27.97;40.18
76378;BME280;65200;49.500;8.654;2023-06-26T07:50:35;100271.50;;;28.07;41.43
76378;BME280;65200;49.500;8.654;2023-06-26T07:53:01;100278.44;;;28.18;40.87
76378;BME280;65200;49.500;8.654;2023-06-26T07:55:28;100274.25;;;27.80;41.21
76378;BME280;65200;49.500;8.654;2023-06-26T07:57:54;100268.94;;;28.24;40.77
76378;BME280;65200;49.500;8.654;2023-06-26T08:00:22;100271.63;;;28.65;40.52
76378;BME280;65200;49.500;8.654;2023-06-26T08:02:49;100273.41;;;29.05;39.43
76378;BME280;65200;49.500;8.654;2023-06-26T08:05:15;100270.06;;;28.73;39.13
76378;BME280;65200;49.500;8.654;2023-06-26T08:07:42;100275.75;;;28.90;39.05
76378;BME280;65200;49.500;8.654;2023-06-26T08:10:09;100275.06;;;28.71;40.13
76378;BME280;65200;49.500;8.654;2023-06-26T08:12:36;100283.72;;;28.91;39.38
76378;BME280;65200;49.500;8.654;2023-06-26T08:15:06;100269.03;;;29.04;39.06
76378;BME280;65200;49.500;8.654;2023-06-26T08:17:34;100270.69;;;29.58;39.37
76378;BME280;65200;49.500;8.654;2023-06-26T08:20:01;100272.72;;;29.75;38.50
76378;BME280;65200;49.500;8.654;2023-06-26T08:22:27;100281.13;;;30.00;38.39
76378;BME280;65200;49.500;8.654;2023-06-26T08:24:54;100282.38;;;29.55;39.32
76378;BME280;65200;49.500;8.654;2023-06-26T08:27:20;100281.50;;;29.46;38.82
76378;BME280;65200;49.500;8.654;2023-06-26T08:29:46;100289.13;;;29.71;38.68
76378;BME280;65200;49.500;8.654;2023-06-26T08:32:13;100283.00;;;29.83;39.25
76378;BME280;65200;49.500;8.654;2023-06-26T08:34:41;100294.47;;;30.07;37.52
76378;BME280;65200;49.500;8.654;2023-06-26T08:37:07;100288.25;;;30.49;39.08
76378;BME280;65200;49.500;8.654;2023-06-26T08:39:35;100295.06;;;30.43;37.22
76378;BME280;65200;49.500;8.654;2023-06-26T08:42:01;100292.69;;;31.01;35.09
76378;BME280;65200;49.500;8.654;2023-06-26T08:44:27;100296.13;;;30.98;36.87
76378;BME280;65200;49.500;8.654;2023-06-26T08:46:54;100300.97;;;30.11;36.74
76378;BME280;65200;49.500;8.654;2023-06-26T08:49:25;100297.41;;;30.19;36.21
76378;BME280;65200;49.500;8.654;2023-06-26T08:51:57;100294.59;;;29.63;35.92
76378;BME280;65200;49.500;8.654;2023-06-26T08:54:33;100301.06;;;29.58;38.29
76378;BME280;65200;49.500;8.654;2023-06-26T08:57:00;100305.69;;;30.02;35.66
76378;BME280;65200;49.500;8.654;2023-06-26T08:59:33;100302.63;;;29.50;36.21
76378;BME280;65200;49.500;8.654;2023-06-26T09:02:05;100306.84;;;29.04;38.27
76378;BME280;65200;49.500;8.654;2023-06-26T09:04:31;100308.25;;;29.37;37.49
76378;BME280;65200;49.500;8.654;2023-06-26T09:07:00;100310.56;;;28.99;37.32
76378;BME280;65200;49.500;8.654;2023-06-26T09:09:27;100311.31;;;28.91;38.66
76378;BME280;65200;49.500;8.654;2023-06-26T09:11:53;100310.44;;;29.26;37.27
76378;BME280;65200;49.500;8.654;2023-06-26T09:14:21;100316.13;;;29.74;38.47
76378;BME280;65200;49.500;8.654;2023-06-26T09:16:48;100307.75;;;30.35;35.62
76378;BME280;65200;49.500;8.654;2023-06-26T09:19:15;100306.13;;;30.43;35.38
76378;BME280;65200;49.500;8.654;2023-06-26T09:21:43;100315.44;;;30.72;36.14
76378;BME280;65200;49.500;8.654;2023-06-26T09:24:11;100317.66;;;29.89;37.58
76378;BME280;65200;49.500;8.654;2023-06-26T09:26:39;100317.78;;;29.62;38.90
76378;BME280;65200;49.500;8.654;2023-06-26T09:29:07;100308.84;;;29.56;37.99
76378;BME280;65200;49.500;8.654;2023-06-26T09:31:36;100315.63;;;30.11;37.42
76378;BME280;65200;49.500;8.654;2023-06-26T09:34:03;100315.34;;;30.21;37.44
76378;BME280;65200;49.500;8.654;2023-06-26T09:36:30;100309.06;;;30.38;34.62
76378;BME280;65200;49.500;8.654;2023-06-26T09:39:02;100312.69;;;30.08;35.42
76378;BME280;65200;49.500;8.654;2023-06-26T09:41:31;100313.53;;;30.17;36.29
76378;BME280;65200;49.500;8.654;2023-06-26T09:44:01;100312.16;;;30.36;36.35
76378;BME280;65200;49.500;8.654;2023-06-26T09:46:29;100311.34;;;30.53;35.71
76378;BME280;65200;49.500;8.654;2023-06-26T09:49:01;100305.50;;;30.54;36.23
76378;BME280;65200;49.500;8.654;2023-06-26T09:51:29;100309.00;;;30.77;35.57
76378;BME280;65200;49.500;8.654;2023-06-26T09:53:55;100305.88;;;31.04;34.52
76378;BME280;65200;49.500;8.654;2023-06-26T09:56:22;100306.53;;;30.84;35.47
76378;BME280;65200;49.500;8.654;2023-06-26T09:58:50;100311.50;;;30.48;35.49
76378;BME280;65200;49.500;8.654;2023-06-26T10:01:17;100312.91;;;29.58;36.87
76378;BME280;65200;49.500;8.654;2023-06-26T10:03:43;100303.28;;;29.78;36.32
76378;BME280;65200;49.500;8.654;2023-06-26T10:06:11;100315.25;;;30.52;35.10
76378;BME280;65200;49.500;8.654;2023-06-26T10:08:39;100309.38;;;30.28;35.63
76378;BME280;65200;49.500;8.654;2023-06-26T10:11:07;100313.91;;;30.24;36.61
76378;BME280;65200;49.500;8.654;2023-06-26T10:13:38;100315.63;;;31.19;35.26
76378;BME280;65200;49.500;8.654;2023-06-26T10:16:07;100304.69;;;31.48;34.00
76378;BME280;65200;49.500;8.654;2023-06-26T10:18:36;100305.22;;;31.24;34.69
76378;BME280;65200;49.500;8.654;2023-06-26T10:21:06;100301.00;;;31.01;34.52
76378;BME280;65200;49.500;8.654;2023-06-26T10:23:36;100302.84;;;30.24;35.81
76378;BME280;65200;49.500;8.654;2023-06-26T10:26:06;100300.91;;;30.24;35.93
76378;BME280;65200;49.500;8.654;2023-06-26T10:28:33;100302.56;;;29.64;36.68
76378;BME280;65200;49.500;8.654;2023-06-26T10:31:02;100301.88;;;29.58;38.65
76378;BME280;65200;49.500;8.654;2023-06-26T10:33:30;100301.94;;;30.06;37.86
76378;BME280;65200;49.500;8.654;2023-06-26T10:36:12;100306.53;;;30.93;35.32
76378;BME280;65200;49.500;8.654;2023-06-26T10:38:49;100311.16;;;30.32;35.75
76378;BME280;65200;49.500;8.654;2023-06-26T10:41:19;100305.72;;;30.10;37.19
76378;BME280;65200;49.500;8.654;2023-06-26T10:43:49;100316.88;;;29.97;37.91
76378;BME280;65200;49.500;8.654;2023-06-26T10:46:15;100316.50;;;29.90;38.33
76378;BME280;65200;49.500;8.654;2023-06-26T10:48:58;100326.94;;;29.40;38.63
76378;BME280;65200;49.500;8.654;2023-06-26T10:51:25;100325.63;;;29.37;38.44
76378;BME280;65200;49.500;8.654;2023-06-26T10:53:54;100314.50;;;30.21;38.28
76378;BME280;65200;49.500;8.654;2023-06-26T10:56:20;100323.97;;;30.85;36.40
76378;BME280;65200;49.500;8.654;2023-06-26T10:58:47;100323.75;;;31.49;35.51
76378;BME280;65200;49.500;8.654;2023-06-26T11:01:16;100322.19;;;32.24;34.25
76378;BME280;65200;49.500;8.654;2023-06-26T11:03:44;100327.34;;;31.50;34.58
76378;BME280;65200;49.500;8.654;2023-06-26T11:06:13;100328.78;;;31.56;35.26
76378;BME280;65200;49.500;8.654;2023-06-26T11:08:47;100328.66;;;30.84;36.72
76378;BME280;65200;49.500;8.654;2023-06-26T11:11:14;100331.41;;;31.52;35.19
76378;BME280;65200;49.500;8.654;2023-06-26T11:13:40;100323.06;;;31.69;35.81
76378;BME280;65200;49.500;8.654;2023-06-26T11:16:07;100323.78;;;31.24;35.65
76378;BME280;65200;49.500;8.654;2023-06-26T11:18:34;100317.59;;;31.18;35.67
76378;BME280;65200;49.500;8.654;2023-06-26T11:21:07;100321.69;;;30.87;36.77
76378;BME280;65200;49.500;8.654;2023-06-26T11:23:36;100312.16;;;30.45;37.16
76378;BME280;65200;49.500;8.654;2023-06-26T11:26:15;100322.81;;;30.77;36.69
76378;BME280;65200;49.500;8.654;2023-06-26T11:28:49;100320.03;;;31.20;35.96
76378;BME280;65200;49.500;8.654;2023-06-26T11:31:26;100319.81;;;31.67;35.27
76378;BME280;65200;49.500;8.654;2023-06-26T11:33:54;100316.31;;;32.25;34.95
76378;BME280;65200;49.500;8.654;2023-06-26T11:36:23;100323.66;;;32.59;34.03
76378;BME280;65200;49.500;8.654;2023-06-26T11:38:53;100316.25;;;32.34;33.86
76378;BME280;65200;49.500;8.654;2023-06-26T11:41:21;100322.13;;;32.03;34.77
76378;BME280;65200;49.500;8.654;2023-06-26T11:43:47;100333.06;;;31.99;34.93
76378;BME280;65200;49.500;8.654;2023-06-26T11:46:16;100334.91;;;31.95;34.95
76378;BME280;65200;49.500;8.654;2023-06-26T11:48:43;100329.66;;;31.14;35.97
76378;BME280;65200;49.500;8.654;2023-06-26T11:51:09;100327.03;;;31.00;35.86
76378;BME280;65200;49.500;8.654;2023-06-26T11:53:39;100327.31;;;30.56;37.85
76378;BME280;65200;49.500;8.654;2023-06-26T11:56:12;100327.88;;;30.84;36.94
76378;BME280;65200;49.500;8.654;2023-06-26T11:58:56;100335.78;;;30.51;37.64
76378;BME280;65200;49.500;8.654;2023-06-26T12:01:24;100331.63;;;30.96;36.46
76378;BME280;65200;49.500;8.654;2023-06-26T12:03:54;100327.34;;;31.58;36.09
76378;BME280;65200;49.500;8.654;2023-06-26T12:06:21;100319.16;;;31.62;35.00
76378;BME280;65200;49.500;8.654;2023-06-26T12:08:47;100321.91;;;32.75;33.07
76378;BME280;65200;49.500;8.654;2023-06-26T12:11:17;100324.03;;;32.49;32.23
76378;BME280;65200;49.500;8.654;2023-06-26T12:13:44;100324.50;;;31.75;33.30
76378;BME280;65200;49.500;8.654;2023-06-26T12:16:12;100323.84;;;31.70;32.66
76378;BME280;65200;49.500;8.654;2023-06-26T12:18:40;100325.88;;;32.36;31.16
76378;BME280;65200;49.500;8.654;2023-06-26T12:21:06;100322.13;;;32.41;30.17
76378;BME280;65200;49.500;8.654;2023-06-26T12:23:33;100322.91;;;32.70;30.42
76378;BME280;65200;49.500;8.654;2023-06-26T12:29:01;100329.22;;;31.92;31.75
76378;BME280;65200;49.500;8.654;2023-06-26T12:31:28;100323.28;;;31.22;32.51
76378;BME280;65200;49.500;8.654;2023-06-26T12:33:54;100324.66;;;31.79;31.62
76378;BME280;65200;49.500;8.654;2023-06-26T12:36:21;100320.91;;;31.75;30.81
76378;BME280;65200;49.500;8.654;2023-06-26T12:38:48;100316.78;;;31.98;30.55
76378;BME280;65200;49.500;8.654;2023-06-26T12:41:15;100319.66;;;32.48;30.04
76378;BME280;65200;49.500;8.654;2023-06-26T12:43:42;100316.59;;;32.61;30.70
76378;BME280;65200;49.500;8.654;2023-06-26T12:46:10;100313.47;;;32.42;29.78
76378;BME280;65200;49.500;8.654;2023-06-26T12:48:37;100326.09;;;32.60;29.53
76378;BME280;65200;49.500;8.654;2023-06-26T12:51:10;100327.34;;;32.04;28.16
76378;BME280;65200;49.500;8.654;2023-06-26T12:53:37;100321.06;;;32.54;28.82
76378;BME280;65200;49.500;8.654;2023-06-26T12:56:05;100333.16;;;32.78;28.50